Time;durP1;ratioP1;P1;durP2;ratioP2;P2;SDS_P1;SDS_P2;PMS_P1;PMS_P2;Temp;Humidity;BMP_temperature;BMP_pressure;BME280_temperature;BME280_humidity;BME280_pressure;Samples;Min_cycle;Max_cycle;Signal;HPM_P1;HPM_P2
2023/09/16 00:00:32;;;;;;;84.85;80.53;;;;;;;;;;5027266;28;20040;-59
2023/09/16 00:02:58;;;;;;;83.47;79.30;;;;;;;;;;5039595;28;20032;-59
2023/09/16 00:05:24;;;;;;;86.72;82.28;;;;;;;;;;5036957;28;20494;-59
2023/09/16 00:07:49;;;;;;;93.30;88.13;;;;;;;;;;5038656;28;20041;-64
2023/09/16 00:10:14;;;;;;;96.97;92.13;;;;;;;;;;5039753;28;20118;-65
2023/09/16 00:12:40;;;;;;;87.68;83.18;;;;;;;;;;5037323;28;20022;-64
2023/09/16 00:15:06;;;;;;;97.30;92.30;;;;;;;;;;5039908;28;20037;-64
2023/09/16 00:17:33;;;;;;;93.22;88.35;;;;;;;;;;5037701;28;20037;-58
2023/09/16 00:19:58;;;;;;;92.85;88.10;;;;;;;;;;5042696;28;20139;-58
2023/09/16 00:22:24;;;;;;;100.18;95.15;;;;;;;;;;5035350;28;20136;-58
2023/09/16 00:24:49;;;;;;;94.10;89.40;;;;;;;;;;5041412;28;20534;-58
2023/09/16 00:27:15;;;;;;;89.80;85.28;;;;;;;;;;5037049;28;20084;-58
2023/09/16 00:29:40;;;;;;;87.00;82.55;;;;;;;;;;5036138;28;20037;-64
2023/09/16 00:32:06;;;;;;;95.60;90.78;;;;;;;;;;5036637;28;20485;-58
2023/09/16 00:34:31;;;;;;;95.63;90.82;;;;;;;;;;5038692;28;20029;-58
2023/09/16 00:36:57;;;;;;;94.07;89.30;;;;;;;;;;5037168;28;20116;-65
2023/09/16 00:39:23;;;;;;;81.93;77.82;;;;;;;;;;5038710;28;20047;-65
2023/09/16 00:41:49;;;;;;;75.55;71.75;;;;;;;;;;5039378;28;20040;-64
2023/09/16 00:44:14;;;;;;;79.97;75.95;;;;;;;;;;5035559;28;20669;-58
2023/09/16 00:46:40;;;;;;;85.63;81.35;;;;;;;;;;5034555;28;20034;-63
2023/09/16 00:49:05;;;;;;;86.05;81.72;;;;;;;;;;5037252;28;20149;-64
2023/09/16 00:51:31;;;;;;;80.30;76.30;;;;;;;;;;5037011;28;20033;-63
2023/09/16 00:53:57;;;;;;;91.70;87.10;;;;;;;;;;5036779;28;20044;-65
2023/09/16 00:56:26;;;;;;;86.18;81.90;;;;;;;;;;5037274;28;20468;-65
2023/09/16 00:58:52;;;;;;;79.57;75.53;;;;;;;;;;5036420;28;20029;-65
2023/09/16 01:01:18;;;;;;;80.70;76.68;;;;;;;;;;5036118;28;20029;-65
2023/09/16 01:03:44;;;;;;;86.88;82.50;;;;;;;;;;5036561;28;20029;-64
2023/09/16 01:06:11;;;;;;;81.22;77.10;;;;;;;;;;5040815;28;20373;-58
2023/09/16 01:08:36;;;;;;;91.93;87.22;;;;;;;;;;5036021;28;20025;-58
2023/09/16 01:11:05;;;;;;;82.05;77.88;;;;;;;;;;5039993;28;20033;-63
2023/09/16 01:13:33;;;;;;;67.15;63.78;;;;;;;;;;5035964;28;20052;-58
2023/09/16 01:16:05;;;;;;;75.38;71.50;;;;;;;;;;5035218;28;20060;-64
2023/09/16 01:18:38;;;;;;;73.32;69.60;;;;;;;;;;5037824;28;20037;-65
2023/09/16 01:21:05;;;;;;;62.85;59.63;;;;;;;;;;5033773;28;20471;-64
2023/09/16 01:23:32;;;;;;;58.60;55.58;;;;;;;;;;5037855;28;20048;-65
2023/09/16 01:25:58;;;;;;;57.20;54.30;;;;;;;;;;5036305;28;20380;-65
2023/09/16 01:28:24;;;;;;;57.13;54.17;;;;;;;;;;5034732;28;20042;-65
2023/09/16 01:30:53;;;;;;;54.38;51.33;;;;;;;;;;5034977;28;20061;-64
2023/09/16 01:33:38;;;;;;;45.15;42.83;;;;;;;;;;5038252;28;20040;-65
2023/09/16 01:36:07;;;;;;;43.47;41.15;;;;;;;;;;5039319;28;20051;-58
2023/09/16 01:38:37;;;;;;;45.13;42.80;;;;;;;;;;5035025;28;20095;-58
2023/09/16 01:41:04;;;;;;;44.13;41.78;;;;;;;;;;5037061;28;20040;-58
2023/09/16 01:43:31;;;;;;;45.15;42.80;;;;;;;;;;5038256;28;20471;-59
2023/09/16 01:45:56;;;;;;;39.97;37.88;;;;;;;;;;5034950;28;20041;-58
2023/09/16 01:48:22;;;;;;;43.50;41.22;;;;;;;;;;5053455;28;20030;-58
2023/09/16 01:50:48;;;;;;;41.17;39.03;;;;;;;;;;5035705;28;20041;-58
2023/09/16 01:53:13;;;;;;;39.03;36.92;;;;;;;;;;5035528;28;20418;-58
2023/09/16 01:55:39;;;;;;;36.78;34.83;;;;;;;;;;5035423;28;20029;-58
2023/09/16 01:58:06;;;;;;;41.13;38.67;;;;;;;;;;5032846;28;20049;-58
2023/09/16 02:00:31;;;;;;;40.20;38.13;;;;;;;;;;5020762;28;20080;-63
2023/09/16 02:02:57;;;;;;;35.58;33.72;;;;;;;;;;5038065;28;20080;-63
2023/09/16 02:05:22;;;;;;;36.03;34.17;;;;;;;;;;5035346;28;20036;-64
2023/09/16 02:07:47;;;;;;;36.35;34.45;;;;;;;;;;5019553;28;20937;-65
2023/09/16 02:10:13;;;;;;;36.65;34.72;;;;;;;;;;5034795;28;20029;-65
2023/09/16 02:12:38;;;;;;;38.88;36.78;;;;;;;;;;5035909;28;20044;-58
2023/09/16 02:15:06;;;;;;;36.28;34.35;;;;;;;;;;5033113;28;20055;-58
2023/09/16 02:17:31;;;;;;;36.63;34.55;;;;;;;;;;5033956;28;20060;-58
2023/09/16 02:19:57;;;;;;;36.45;34.53;;;;;;;;;;5036771;28;20033;-58
2023/09/16 02:22:22;;;;;;;36.80;34.83;;;;;;;;;;5036189;28;20043;-58
2023/09/16 02:24:48;;;;;;;37.05;35.10;;;;;;;;;;5035548;28;20108;-65
2023/09/16 02:27:13;;;;;;;34.05;32.15;;;;;;;;;;5023141;28;20037;-58
2023/09/16 02:29:39;;;;;;;35.80;33.78;;;;;;;;;;5035938;28;20644;-64
2023/09/16 02:32:05;;;;;;;36.47;34.55;;;;;;;;;;5034529;28;20087;-65
2023/09/16 02:34:33;;;;;;;35.13;33.28;;;;;;;;;;5036662;28;20061;-64
2023/09/16 02:36:59;;;;;;;33.17;31.42;;;;;;;;;;5055621;28;20043;-65
2023/09/16 02:39:25;;;;;;;32.97;31.15;;;;;;;;;;5038360;28;20033;-65
2023/09/16 02:41:50;;;;;;;31.73;30.05;;;;;;;;;;5042130;28;20037;-64
2023/09/16 02:44:15;;;;;;;33.83;32.00;;;;;;;;;;5038810;28;20067;-65
2023/09/16 02:46:41;;;;;;;33.97;32.08;;;;;;;;;;5022123;28;20060;-65
2023/09/16 02:49:06;;;;;;;34.00;32.20;;;;;;;;;;5036107;28;20022;-59
2023/09/16 02:51:34;;;;;;;32.60;30.88;;;;;;;;;;5038191;28;20031;-59
2023/09/16 02:54:01;;;;;;;32.17;29.98;;;;;;;;;;5038881;28;20047;-64
2023/09/16 02:56:27;;;;;;;35.40;33.50;;;;;;;;;;5039024;28;20029;-65
2023/09/16 02:58:53;;;;;;;32.55;30.83;;;;;;;;;;5039966;28;20040;-64
2023/09/16 03:01:18;;;;;;;34.83;32.97;;;;;;;;;;5037320;28;20068;-65
2023/09/16 03:03:44;;;;;;;33.67;31.85;;;;;;;;;;5039026;28;20443;-65
2023/09/16 03:06:09;;;;;;;32.75;31.02;;;;;;;;;;5041377;28;20099;-65
2023/09/16 03:08:35;;;;;;;34.28;32.42;;;;;;;;;;5040222;28;20051;-64
2023/09/16 03:11:02;;;;;;;36.08;34.08;;;;;;;;;;5039068;28;20380;-65
2023/09/16 03:13:28;;;;;;;34.03;32.22;;;;;;;;;;5041902;28;20674;-59
2023/09/16 03:16:14;;;;;;;35.85;33.95;;;;;;;;;;5036834;28;20039;-62
2023/09/16 03:18:44;;;;;;;35.50;33.60;;;;;;;;;;5038350;28;20044;-58
2023/09/16 03:21:09;;;;;;;34.20;32.42;;;;;;;;;;5038364;28;20041;-58
2023/09/16 03:23:35;;;;;;;39.35;37.17;;;;;;;;;;5040876;28;20037;-62
2023/09/16 03:26:00;;;;;;;38.38;36.40;;;;;;;;;;5036240;28;20044;-66
2023/09/16 03:28:25;;;;;;;35.58;33.67;;;;;;;;;;5037859;28;20035;-66
2023/09/16 03:30:51;;;;;;;34.72;32.90;;;;;;;;;;5040364;28;20044;-65
2023/09/16 03:33:16;;;;;;;35.15;33.25;;;;;;;;;;5037845;28;20067;-64
2023/09/16 03:35:41;;;;;;;35.00;33.13;;;;;;;;;;5040740;28;20037;-58
2023/09/16 03:38:07;;;;;;;35.45;33.55;;;;;;;;;;5038310;28;20084;-64
2023/09/16 03:40:33;;;;;;;31.63;29.92;;;;;;;;;;5037645;28;20041;-58
2023/09/16 03:42:58;;;;;;;32.00;30.30;;;;;;;;;;5038215;28;20600;-65
2023/09/16 03:45:24;;;;;;;31.13;29.42;;;;;;;;;;5037096;28;20040;-59
2023/09/16 03:47:49;;;;;;;33.58;31.65;;;;;;;;;;5036186;28;20380;-66
2023/09/16 03:50:15;;;;;;;31.90;30.10;;;;;;;;;;5024568;28;20047;-65
2023/09/16 03:52:40;;;;;;;31.65;30.00;;;;;;;;;;5022967;28;20125;-57
2023/09/16 03:55:06;;;;;;;32.53;30.83;;;;;;;;;;5022000;28;20037;-58
2023/09/16 03:57:31;;;;;;;31.77;30.05;;;;;;;;;;5040256;28;20044;-57
2023/09/16 03:59:56;;;;;;;30.73;29.05;;;;;;;;;;5038788;28;20037;-58
2023/09/16 04:02:22;;;;;;;29.45;27.90;;;;;;;;;;5021709;28;20098;-58
2023/09/16 04:04:47;;;;;;;30.85;29.25;;;;;;;;;;5039223;28;20048;-57
2023/09/16 04:07:12;;;;;;;30.23;28.63;;;;;;;;;;5039000;28;20037;-58
2023/09/16 04:09:38;;;;;;;30.20;28.60;;;;;;;;;;5039062;28;20045;-58
2023/09/16 04:12:04;;;;;;;33.95;32.15;;;;;;;;;;5035848;28;20091;-57
2023/09/16 04:14:29;;;;;;;31.55;29.85;;;;;;;;;;5038565;28;20640;-57
2023/09/16 04:16:55;;;;;;;30.08;28.48;;;;;;;;;;5025499;28;20047;-58
2023/09/16 04:19:20;;;;;;;33.72;31.90;;;;;;;;;;5038328;28;20037;-57
2023/09/16 04:21:50;;;;;;;31.00;29.27;;;;;;;;;;5034897;28;20029;-57
2023/09/16 04:24:15;;;;;;;33.05;31.30;;;;;;;;;;5038433;28;20037;-58
2023/09/16 04:26:40;;;;;;;30.83;29.20;;;;;;;;;;5038289;28;20047;-57
2023/09/16 04:29:06;;;;;;;33.42;31.67;;;;;;;;;;5038585;28;20632;-57
2023/09/16 04:31:31;;;;;;;36.55;34.65;;;;;;;;;;5035912;28;20121;-57
2023/09/16 04:33:57;;;;;;;37.28;35.35;;;;;;;;;;5038019;28;20043;-57
2023/09/16 04:36:22;;;;;;;36.17;34.30;;;;;;;;;;5038668;28;20213;-58
2023/09/16 04:38:48;;;;;;;36.90;35.00;;;;;;;;;;5039337;28;20032;-58
2023/09/16 04:41:14;;;;;;;39.60;37.53;;;;;;;;;;5037858;28;20110;-58
2023/09/16 04:43:40;;;;;;;40.92;38.75;;;;;;;;;;5038166;28;20769;-60
2023/09/16 04:46:06;;;;;;;40.60;38.47;;;;;;;;;;5038945;28;20038;-58
2023/09/16 04:48:31;;;;;;;37.28;35.30;;;;;;;;;;5036553;28;20334;-58
2023/09/16 04:50:57;;;;;;;40.85;38.72;;;;;;;;;;5022232;28;20032;-57
2023/09/16 04:53:22;;;;;;;39.53;37.45;;;;;;;;;;5036733;28;20067;-58
2023/09/16 04:55:47;;;;;;;40.90;38.78;;;;;;;;;;5037801;28;20037;-57
2023/09/16 04:58:13;;;;;;;39.38;37.30;;;;;;;;;;5037230;28;20115;-58
2023/09/16 05:00:39;;;;;;;40.83;38.58;;;;;;;;;;5035731;28;20135;-57
2023/09/16 05:03:04;;;;;;;42.25;40.08;;;;;;;;;;5036651;28;20467;-57
2023/09/16 05:05:31;;;;;;;41.28;39.15;;;;;;;;;;5021694;28;20036;-58
2023/09/16 05:07:57;;;;;;;40.90;38.80;;;;;;;;;;5036068;28;20470;-57
2023/09/16 05:10:22;;;;;;;41.20;39.05;;;;;;;;;;5039622;28;20500;-58
2023/09/16 05:12:48;;;;;;;37.95;35.95;;;;;;;;;;5040596;28;20028;-57
2023/09/16 05:15:13;;;;;;;37.65;35.65;;;;;;;;;;5037759;28;20124;-58
2023/09/16 05:17:40;;;;;;;36.90;35.00;;;;;;;;;;5038436;28;20029;-61
2023/09/16 05:20:06;;;;;;;34.80;33.00;;;;;;;;;;5020928;28;20036;-66
2023/09/16 05:22:31;;;;;;;36.00;34.00;;;;;;;;;;5036905;28;20025;-65
2023/09/16 05:24:57;;;;;;;40.85;38.75;;;;;;;;;;5008852;28;20041;-60
2023/09/16 05:27:22;;;;;;;42.60;40.38;;;;;;;;;;5032873;28;20029;-58
2023/09/16 05:29:51;;;;;;;44.83;42.53;;;;;;;;;;5039561;28;20372;-64
2023/09/16 05:32:18;;;;;;;47.83;45.38;;;;;;;;;;5036009;28;20029;-64
2023/09/16 05:34:44;;;;;;;51.42;48.80;;;;;;;;;;5018436;28;20029;-64
2023/09/16 05:37:09;;;;;;;54.88;52.08;;;;;;;;;;5036274;28;20037;-63
2023/09/16 05:39:35;;;;;;;52.75;49.97;;;;;;;;;;5037504;28;20499;-63
2023/09/16 05:42:00;;;;;;;52.00;49.30;;;;;;;;;;5029984;28;20500;-64
2023/09/16 05:44:26;;;;;;;53.63;50.88;;;;;;;;;;5037722;28;20033;-64
2023/09/16 05:46:51;;;;;;;50.05;47.50;;;;;;;;;;5019925;28;20033;-58
2023/09/16 05:49:18;;;;;;;47.30;44.78;;;;;;;;;;5038296;28;20039;-64
2023/09/16 05:51:43;;;;;;;47.63;45.15;;;;;;;;;;5020283;28;20048;-58
2023/09/16 05:54:09;;;;;;;42.03;39.85;;;;;;;;;;5037664;28;20030;-62
2023/09/16 05:56:37;;;;;;;46.47;44.10;;;;;;;;;;5036814;28;20586;-58
2023/09/16 05:59:03;;;;;;;44.28;42.00;;;;;;;;;;5034509;28;20040;-58
2023/09/16 06:01:28;;;;;;;44.42;42.10;;;;;;;;;;5033187;28;20021;-57
2023/09/16 06:03:54;;;;;;;42.22;40.05;;;;;;;;;;5034674;28;20482;-57
2023/09/16 06:06:19;;;;;;;39.13;37.03;;;;;;;;;;5036717;28;20029;-57
2023/09/16 06:08:45;;;;;;;37.38;35.45;;;;;;;;;;5038253;28;20033;-57
2023/09/16 06:11:10;;;;;;;33.78;32.00;;;;;;;;;;5025913;28;20037;-64
2023/09/16 06:13:35;;;;;;;37.70;35.70;;;;;;;;;;5037736;28;20041;-58
2023/09/16 06:16:01;;;;;;;35.78;33.88;;;;;;;;;;5024121;28;20134;-58
2023/09/16 06:18:26;;;;;;;37.20;35.28;;;;;;;;;;5039638;28;20045;-59
2023/09/16 06:20:52;;;;;;;38.20;36.17;;;;;;;;;;5042972;28;20035;-59
2023/09/16 06:23:17;;;;;;;33.33;31.42;;;;;;;;;;5039075;28;20052;-58
2023/09/16 06:25:43;;;;;;;31.77;30.13;;;;;;;;;;5024108;28;20040;-64
2023/09/16 06:28:08;;;;;;;29.45;27.90;;;;;;;;;;5040666;28;20182;-59
2023/09/16 06:30:34;;;;;;;30.15;28.50;;;;;;;;;;5041859;28;20026;-58
2023/09/16 06:32:59;;;;;;;28.52;26.98;;;;;;;;;;5038583;28;20353;-60
2023/09/16 06:35:25;;;;;;;27.02;25.42;;;;;;;;;;5040275;28;20029;-66
2023/09/16 06:37:50;;;;;;;23.48;22.20;;;;;;;;;;5025829;28;20047;-66
2023/09/16 06:40:19;;;;;;;20.27;19.15;;;;;;;;;;5040626;28;20040;-59
2023/09/16 06:42:45;;;;;;;18.65;17.63;;;;;;;;;;5040715;28;20040;-59
2023/09/16 06:45:12;;;;;;;19.08;18.02;;;;;;;;;;5040476;28;20037;-59
2023/09/16 06:47:38;;;;;;;18.80;17.70;;;;;;;;;;5039383;28;20033;-65
2023/09/16 06:50:04;;;;;;;20.30;19.15;;;;;;;;;;5039370;28;20033;-65
2023/09/16 06:52:29;;;;;;;17.85;16.85;;;;;;;;;;5021614;28;20235;-59
2023/09/16 06:54:55;;;;;;;17.40;16.40;;;;;;;;;;5024276;28;20538;-59
2023/09/16 06:57:20;;;;;;;20.33;19.17;;;;;;;;;;5038644;28;20060;-59
2023/09/16 06:59:47;;;;;;;18.92;17.77;;;;;;;;;;5038339;28;20379;-59
2023/09/16 07:02:14;;;;;;;16.50;15.40;;;;;;;;;;5037528;28;20052;-60
2023/09/16 07:04:40;;;;;;;18.95;17.85;;;;;;;;;;5038235;28;20044;-61
2023/09/16 07:07:09;;;;;;;16.10;15.15;;;;;;;;;;5024196;28;20083;-65
2023/09/16 07:09:35;;;;;;;17.10;16.15;;;;;;;;;;5038316;28;20104;-65
2023/09/16 07:12:00;;;;;;;15.00;14.10;;;;;;;;;;5042333;28;20155;-65
2023/09/16 07:14:26;;;;;;;16.67;15.50;;;;;;;;;;5038570;28;20151;-65
2023/09/16 07:16:51;;;;;;;14.88;14.07;;;;;;;;;;5041820;28;20386;-65
2023/09/16 07:19:17;;;;;;;18.58;17.38;;;;;;;;;;5040511;28;20600;-60
2023/09/16 07:21:42;;;;;;;18.52;17.45;;;;;;;;;;5018372;28;20498;-66
2023/09/16 07:24:08;;;;;;;21.70;20.42;;;;;;;;;;5037236;28;20170;-65
2023/09/16 07:26:33;;;;;;;22.98;21.67;;;;;;;;;;5039614;28;20025;-66
2023/09/16 07:28:58;;;;;;;26.15;24.77;;;;;;;;;;5037024;28;20025;-66
2023/09/16 07:31:24;;;;;;;22.60;21.33;;;;;;;;;;5037812;28;20410;-60
2023/09/16 07:33:49;;;;;;;30.88;29.25;;;;;;;;;;5037611;28;20132;-66
2023/09/16 07:36:15;;;;;;;34.72;32.92;;;;;;;;;;5038563;28;20029;-61
2023/09/16 07:38:40;;;;;;;28.80;27.27;;;;;;;;;;5037707;28;20037;-61
2023/09/16 07:41:06;;;;;;;27.35;25.92;;;;;;;;;;5024070;28;20112;-61
2023/09/16 07:43:31;;;;;;;31.35;29.65;;;;;;;;;;5037355;28;20039;-61
2023/09/16 07:45:58;;;;;;;24.15;22.75;;;;;;;;;;5037860;28;20029;-61
2023/09/16 07:48:24;;;;;;;32.63;29.38;;;;;;;;;;5038969;28;20033;-61
2023/09/16 07:50:49;;;;;;;29.02;27.48;;;;;;;;;;5040104;28;20052;-60
2023/09/16 07:53:15;;;;;;;24.75;23.40;;;;;;;;;;5020691;28;20040;-60
2023/09/16 07:55:40;;;;;;;31.65;30.00;;;;;;;;;;5039386;28;20024;-60
2023/09/16 07:58:06;;;;;;;24.63;23.30;;;;;;;;;;5038518;28;20491;-59
2023/09/16 08:00:31;;;;;;;24.35;23.02;;;;;;;;;;5034658;28;20052;-60
2023/09/16 08:02:56;;;;;;;25.90;24.50;;;;;;;;;;5040055;28;20037;-62
2023/09/16 08:05:22;;;;;;;28.80;26.77;;;;;;;;;;5037892;28;20037;-64
2023/09/16 08:07:47;;;;;;;41.30;39.15;;;;;;;;;;5035792;28;20033;-65
2023/09/16 08:10:13;;;;;;;28.33;26.83;;;;;;;;;;5039434;28;20024;-66
2023/09/16 08:12:38;;;;;;;29.35;27.85;;;;;;;;;;5038623;28;20159;-65
2023/09/16 08:15:06;;;;;;;26.02;24.65;;;;;;;;;;5037870;28;20031;-66
2023/09/16 08:17:32;;;;;;;28.27;26.77;;;;;;;;;;5024308;28;20115;-60
2023/09/16 08:19:58;;;;;;;29.20;27.67;;;;;;;;;;5036940;28;20039;-65
2023/09/16 08:22:23;;;;;;;28.58;27.10;;;;;;;;;;5038424;28;20033;-60
2023/09/16 08:24:52;;;;;;;31.17;29.45;;;;;;;;;;5031834;28;20367;-64
2023/09/16 08:27:19;;;;;;;28.40;26.90;;;;;;;;;;5037452;28;20572;-60
2023/09/16 08:29:45;;;;;;;28.52;27.02;;;;;;;;;;5036825;28;20028;-64
2023/09/16 08:32:10;;;;;;;33.10;31.30;;;;;;;;;;5037842;28;20422;-66
2023/09/16 08:34:36;;;;;;;47.00;44.53;;;;;;;;;;5037927;28;20037;-64
2023/09/16 08:37:01;;;;;;;28.77;27.25;;;;;;;;;;5037150;28;20030;-60
2023/09/16 08:39:27;;;;;;;30.40;28.80;;;;;;;;;;5034458;28;20090;-60
2023/09/16 08:42:03;;;;;;;32.70;31.00;;;;;;;;;;5036884;28;20044;-60
2023/09/16 08:44:33;;;;;;;39.67;37.60;;;;;;;;;;5023848;28;20041;-60
2023/09/16 08:47:10;;;;;;;45.50;43.20;;;;;;;;;;5027719;28;20570;-65
2023/09/16 08:49:42;;;;;;;38.15;35.85;;;;;;;;;;5028872;28;20033;-65
2023/09/16 08:52:10;;;;;;;47.85;45.38;;;;;;;;;;5039793;28;20039;-60
2023/09/16 08:54:39;;;;;;;46.67;44.30;;;;;;;;;;5034851;28;20471;-65
2023/09/16 08:57:05;;;;;;;58.05;55.15;;;;;;;;;;5030979;28;20052;-60
2023/09/16 08:59:31;;;;;;;61.88;58.63;;;;;;;;;;5024295;28;20033;-60
2023/09/16 09:01:57;;;;;;;65.10;61.80;;;;;;;;;;5037494;28;20033;-60
2023/09/16 09:04:23;;;;;;;54.97;52.17;;;;;;;;;;5034144;28;20075;-60
2023/09/16 09:06:49;;;;;;;64.13;60.92;;;;;;;;;;5037140;28;20092;-64
2023/09/16 09:09:14;;;;;;;63.88;60.58;;;;;;;;;;5033489;28;20487;-65
2023/09/16 09:11:40;;;;;;;73.97;69.95;;;;;;;;;;5035491;28;20065;-60
2023/09/16 09:14:09;;;;;;;54.22;51.47;;;;;;;;;;5040754;28;20107;-66
2023/09/16 09:16:38;;;;;;;61.10;57.92;;;;;;;;;;5038599;28;20039;-67
2023/09/16 09:19:04;;;;;;;54.78;51.97;;;;;;;;;;5034475;28;20036;-60
2023/09/16 09:21:31;;;;;;;39.58;37.38;;;;;;;;;;5024242;28;20179;-60
2023/09/16 09:23:58;;;;;;;39.75;37.65;;;;;;;;;;5038667;28;20044;-67
2023/09/16 09:26:23;;;;;;;54.78;51.97;;;;;;;;;;5037214;28;20052;-67
2023/09/16 09:28:49;;;;;;;71.28;67.70;;;;;;;;;;5035681;28;20045;-62
2023/09/16 09:31:15;;;;;;;37.40;35.45;;;;;;;;;;5034738;28;20099;-61
2023/09/16 09:33:44;;;;;;;25.88;24.48;;;;;;;;;;5039658;28;20029;-66
2023/09/16 09:36:15;;;;;;;25.17;23.08;;;;;;;;;;5037746;28;20026;-61
2023/09/16 09:38:42;;;;;;;28.50;27.00;;;;;;;;;;5036078;28;20461;-60
2023/09/16 09:41:08;;;;;;;24.13;22.83;;;;;;;;;;5036068;28;20398;-61
2023/09/16 09:43:33;;;;;;;24.52;23.13;;;;;;;;;;5038167;28;20033;-61
2023/09/16 09:45:59;;;;;;;20.10;19.00;;;;;;;;;;5025304;28;20405;-60
2023/09/16 09:48:25;;;;;;;28.33;26.83;;;;;;;;;;5043147;28;20040;-60
2023/09/16 09:50:50;;;;;;;53.63;50.90;;;;;;;;;;5022020;28;20527;-66
2023/09/16 09:53:16;;;;;;;23.83;22.50;;;;;;;;;;5057554;28;20028;-67
2023/09/16 09:55:41;;;;;;;23.67;22.38;;;;;;;;;;5042221;28;20025;-67
2023/09/16 09:58:07;;;;;;;27.55;26.10;;;;;;;;;;5021931;28;20033;-67
2023/09/16 10:00:32;;;;;;;37.70;35.75;;;;;;;;;;5041605;28;20041;-67
2023/09/16 10:03:00;;;;;;;107.90;102.57;;;;;;;;;;5040534;28;20037;-61
2023/09/16 10:05:26;;;;;;;60.70;56.85;;;;;;;;;;5043398;28;20068;-62
2023/09/16 10:07:52;;;;;;;57.85;54.85;;;;;;;;;;5039984;28;20206;-62
2023/09/16 10:10:21;;;;;;;125.72;119.47;;;;;;;;;;5040720;28;20426;-63
2023/09/16 10:12:54;;;;;;;177.52;168.80;;;;;;;;;;5041948;28;20036;-61
2023/09/16 10:15:27;;;;;;;222.63;211.68;;;;;;;;;;5039762;28;20113;-61
2023/09/16 10:17:53;;;;;;;95.70;90.97;;;;;;;;;;5025199;28;20036;-63
2023/09/16 10:20:18;;;;;;;169.40;161.05;;;;;;;;;;5040551;28;20456;-62
2023/09/16 10:22:45;;;;;;;172.13;163.75;;;;;;;;;;5043971;28;20044;-60
2023/09/16 10:25:14;;;;;;;183.93;174.90;;;;;;;;;;5040939;28;20457;-63
2023/09/16 10:27:50;;;;;;;192.23;182.80;;;;;;;;;;5040509;28;20033;-63
2023/09/16 10:30:16;;;;;;;57.28;54.38;;;;;;;;;;5038279;28;20471;-64
2023/09/16 10:32:43;;;;;;;195.98;186.40;;;;;;;;;;5024029;28;20048;-63
2023/09/16 10:35:09;;;;;;;91.80;87.25;;;;;;;;;;5043853;28;20094;-60
2023/09/16 10:37:36;;;;;;;154.07;146.50;;;;;;;;;;5037101;28;20025;-63
2023/09/16 10:40:04;;;;;;;152.65;145.05;;;;;;;;;;5039433;28;20517;-63
2023/09/16 10:42:33;;;;;;;225.43;214.45;;;;;;;;;;5024582;28;20401;-63
2023/09/16 10:45:01;;;;;;;227.45;216.35;;;;;;;;;;5038785;28;20025;-62
2023/09/16 10:47:27;;;;;;;326.05;309.80;;;;;;;;;;5041052;28;20143;-61
2023/09/16 10:49:53;;;;;;;273.20;259.65;;;;;;;;;;5038336;28;20483;-63
2023/09/16 10:52:24;;;;;;;311.05;295.65;;;;;;;;;;5025885;28;20503;-60
2023/09/16 10:55:13;;;;;;;291.85;277.48;;;;;;;;;;5037723;28;20048;-63
2023/09/16 10:58:01;;;;;;;302.80;287.73;;;;;;;;;;5011565;28;20053;-61
2023/09/16 11:00:37;;;;;;;135.80;128.93;;;;;;;;;;5035080;28;20048;-63
2023/09/16 11:03:05;;;;;;;92.05;87.45;;;;;;;;;;5041198;28;20079;-63
2023/09/16 11:05:32;;;;;;;299.58;284.75;;;;;;;;;;5038738;28;20411;-66
2023/09/16 11:07:57;;;;;;;309.40;294.13;;;;;;;;;;5039734;28;20033;-64
2023/09/16 11:10:23;;;;;;;297.85;283.13;;;;;;;;;;5040772;28;20063;-65
2023/09/16 11:12:50;;;;;;;343.05;325.33;;;;;;;;;;5041113;28;20042;-66
2023/09/16 11:15:17;;;;;;;307.35;292.20;;;;;;;;;;5037673;28;20033;-66
2023/09/16 11:17:42;;;;;;;263.45;250.57;;;;;;;;;;5048952;28;20037;-67
2023/09/16 11:20:21;;;;;;;242.25;230.35;;;;;;;;;;5038423;28;20043;-67
2023/09/16 11:22:50;;;;;;;283.13;269.27;;;;;;;;;;5040153;28;20094;-67
2023/09/16 11:25:16;;;;;;;306.92;291.80;;;;;;;;;;5037688;28;20091;-61
2023/09/16 11:27:41;;;;;;;309.23;293.88;;;;;;;;;;5037568;28;20037;-62
2023/09/16 11:30:12;;;;;;;311.75;296.33;;;;;;;;;;5039032;28;20032;-61
2023/09/16 11:33:00;;;;;;;281.95;268.15;;;;;;;;;;5036980;28;20199;-61
2023/09/16 11:35:26;;;;;;;278.20;264.52;;;;;;;;;;5038472;28;20080;-67
2023/09/16 11:37:52;;;;;;;317.15;301.38;;;;;;;;;;5036719;28;20032;-62
2023/09/16 11:40:18;;;;;;;275.38;261.85;;;;;;;;;;5036579;28;20029;-67
2023/09/16 11:42:44;;;;;;;238.40;226.85;;;;;;;;;;5037805;28;20036;-67
2023/09/16 11:45:10;;;;;;;248.07;235.93;;;;;;;;;;5035351;28;20134;-62
2023/09/16 11:47:36;;;;;;;268.65;255.55;;;;;;;;;;5035779;28;20030;-62
2023/09/16 11:50:06;;;;;;;230.05;218.85;;;;;;;;;;5036752;28;20392;-62
2023/09/16 11:52:32;;;;;;;232.77;221.43;;;;;;;;;;5035236;28;20048;-67
2023/09/16 11:54:57;;;;;;;233.88;222.50;;;;;;;;;;5022103;28;20037;-67
2023/09/16 11:57:23;;;;;;;218.45;207.73;;;;;;;;;;5035392;28;20471;-62
2023/09/16 11:59:49;;;;;;;205.07;195.15;;;;;;;;;;5038057;28;20456;-62
2023/09/16 12:02:16;;;;;;;188.13;178.85;;;;;;;;;;5040472;28;20157;-62
2023/09/16 12:04:41;;;;;;;223.55;212.65;;;;;;;;;;5038642;28;20043;-67
2023/09/16 12:07:07;;;;;;;191.63;182.27;;;;;;;;;;5036880;28;20403;-66
2023/09/16 12:09:33;;;;;;;190.98;181.45;;;;;;;;;;5038179;28;20034;-67
2023/09/16 12:11:59;;;;;;;170.40;162.00;;;;;;;;;;5038663;28;20041;-67
2023/09/16 12:14:24;;;;;;;171.60;163.13;;;;;;;;;;5038146;28;20044;-68
2023/09/16 12:16:53;;;;;;;191.80;182.40;;;;;;;;;;5039083;28;20033;-63
2023/09/16 12:19:19;;;;;;;183.63;174.60;;;;;;;;;;5037995;28;20052;-67
2023/09/16 12:21:49;;;;;;;179.20;170.48;;;;;;;;;;5037987;28;20029;-67
2023/09/16 12:24:18;;;;;;;;;;;;;;;;;;5042215;28;20032;-67
2023/09/16 12:26:44;;;;;;;177.35;168.65;;;;;;;;;;5041550;28;20260;-67
2023/09/16 12:29:10;;;;;;;163.93;155.90;;;;;;;;;;5040687;28;20663;-67
2023/09/16 12:31:35;;;;;;;152.48;144.90;;;;;;;;;;5035643;28;20144;-63
2023/09/16 12:34:01;;;;;;;177.05;168.40;;;;;;;;;;5039846;28;20035;-63
2023/09/16 12:36:28;;;;;;;184.10;174.95;;;;;;;;;;5039896;28;20064;-63
2023/09/16 12:38:55;;;;;;;132.80;126.18;;;;;;;;;;5032145;28;20056;-63
2023/09/16 12:41:21;;;;;;;149.52;142.07;;;;;;;;;;5036112;28;20037;-63
2023/09/16 12:43:47;;;;;;;146.68;139.38;;;;;;;;;;5032969;28;20028;-63
2023/09/16 12:46:14;;;;;;;107.95;102.53;;;;;;;;;;5037550;28;20422;-67
2023/09/16 12:48:42;;;;;;;118.22;112.38;;;;;;;;;;5035350;28;20124;-63
2023/09/16 12:51:08;;;;;;;121.78;115.75;;;;;;;;;;5024992;28;20029;-62
2023/09/16 12:53:34;;;;;;;108.97;103.57;;;;;;;;;;5010760;28;20033;-64
2023/09/16 12:56:03;;;;;;;141.15;134.18;;;;;;;;;;5036267;28;20120;-70
2023/09/16 12:58:29;;;;;;;76.65;72.82;;;;;;;;;;5037820;28;20117;-69
2023/09/16 13:00:54;;;;;;;58.70;55.72;;;;;;;;;;5034326;28;20116;-63
2023/09/16 13:03:22;;;;;;;53.70;50.97;;;;;;;;;;5037663;28;20344;-63
2023/09/16 13:05:51;;;;;;;72.35;68.72;;;;;;;;;;5034274;28;20464;-70
2023/09/16 13:08:19;;;;;;;55.45;52.45;;;;;;;;;;5038022;28;20029;-64
2023/09/16 13:10:47;;;;;;;92.95;88.32;;;;;;;;;;5039628;28;20033;-69
2023/09/16 13:13:13;;;;;;;70.43;66.82;;;;;;;;;;5034748;28;20936;-64
2023/09/16 13:15:43;;;;;;;49.03;46.53;;;;;;;;;;5021212;28;20032;-63
2023/09/16 13:18:09;;;;;;;54.95;52.15;;;;;;;;;;5037506;28;20530;-64
2023/09/16 13:20:39;;;;;;;48.10;45.63;;;;;;;;;;5035573;28;20040;-62
2023/09/16 13:23:06;;;;;;;44.10;41.80;;;;;;;;;;5035397;28;20527;-62
2023/09/16 13:25:43;;;;;;;58.80;55.70;;;;;;;;;;5033611;28;20041;-63
2023/09/16 13:28:14;;;;;;;48.55;46.05;;;;;;;;;;5037503;28;20460;-64
2023/09/16 13:30:56;;;;;;;39.03;36.92;;;;;;;;;;5019068;28;20086;-63
2023/09/16 13:34:00;;;;;;;45.92;42.97;;;;;;;;;;5034368;28;20076;-64
2023/09/16 13:36:29;;;;;;;41.28;39.10;;;;;;;;;;5034472;28;20040;-64
2023/09/16 13:38:55;;;;;;;43.20;41.00;;;;;;;;;;5037229;28;20124;-63
2023/09/16 13:41:22;;;;;;;45.90;43.50;;;;;;;;;;5020930;28;20117;-63
2023/09/16 13:43:48;;;;;;;69.28;65.80;;;;;;;;;;5036117;28;20119;-63
2023/09/16 13:46:13;;;;;;;31.63;30.00;;;;;;;;;;5042953;28;20103;-62
2023/09/16 13:48:40;;;;;;;32.70;30.92;;;;;;;;;;5033641;28;20090;-68
2023/09/16 13:51:07;;;;;;;31.65;29.98;;;;;;;;;;5035362;28;20040;-68
2023/09/16 13:53:32;;;;;;;27.25;25.85;;;;;;;;;;5035398;28;20131;-68
2023/09/16 13:55:58;;;;;;;28.85;27.30;;;;;;;;;;5035644;28;20634;-68
2023/09/16 13:58:24;;;;;;;36.45;34.55;;;;;;;;;;5040154;28;20032;-67
2023/09/16 14:00:50;;;;;;;33.38;31.58;;;;;;;;;;5033350;28;20120;-63
2023/09/16 14:03:16;;;;;;;43.50;41.28;;;;;;;;;;5023286;28;20041;-63
2023/09/16 14:05:43;;;;;;;28.10;26.60;;;;;;;;;;5038260;28;20103;-63
2023/09/16 14:08:08;;;;;;;31.48;29.85;;;;;;;;;;5037301;28;20174;-68
2023/09/16 14:10:34;;;;;;;29.25;27.70;;;;;;;;;;5036020;28;20608;-68